createdAt,value
2023-07-16T00:01:56.317Z,100896.28
2023-07-16T00:04:23.166Z,100906.06
2023-07-16T00:06:49.872Z,100905.31
2023-07-16T00:09:16.637Z,100907.31
2023-07-16T00:11:43.245Z,100898.69
2023-07-16T00:14:12.595Z,100899.47
2023-07-16T00:16:42.844Z,100902.56
2023-07-16T00:19:12.514Z,100898.63
2023-07-16T00:21:39.814Z,100896.16
2023-07-16T00:24:06.601Z,100899.03
2023-07-16T00:26:33.362Z,100891.19
2023-07-16T00:29:00.007Z,100893.53
2023-07-16T00:31:26.574Z,100896.63
2023-07-16T00:33:53.216Z,100893.88
2023-07-16T00:36:19.856Z,100894.28
2023-07-16T00:38:47.001Z,100914.34
2023-07-16T00:41:15.686Z,100907.66
2023-07-16T00:43:42.461Z,100910.81
2023-07-16T00:46:09.910Z,100923.41
2023-07-16T00:48:36.769Z,100914.69
2023-07-16T00:51:05.301Z,100910.06
2023-07-16T00:53:32.789Z,100922.25
2023-07-16T00:55:59.834Z,100925.03
2023-07-16T00:58:26.917Z,100921.59
2023-07-16T01:00:53.840Z,100923.56
2023-07-16T01:03:20.594Z,100924.00
2023-07-16T01:06:09.328Z,100923.22
2023-07-16T01:08:44.003Z,100924.44
2023-07-16T01:11:11.167Z,100919.88
2023-07-16T01:13:38.251Z,100921.94
2023-07-16T01:16:05.259Z,100924.00
2023-07-16T01:18:31.940Z,100915.75
2023-07-16T01:20:58.826Z,100913.69
2023-07-16T01:23:40.784Z,100912.06
2023-07-16T01:26:16.719Z,100910.41
2023-07-16T01:28:55.693Z,100918.66
2023-07-16T01:31:23.580Z,100915.16
2023-07-16T01:33:52.146Z,100916.88
2023-07-16T01:36:20.606Z,100911.03
2023-07-16T01:38:47.546Z,100915.34
2023-07-16T01:41:14.521Z,100911.81
2023-07-16T01:43:41.062Z,100917.75
2023-07-16T01:46:07.817Z,100911.88
2023-07-16T01:48:36.656Z,100913.44
2023-07-16T01:51:04.400Z,100913.09
2023-07-16T01:53:34.337Z,100912.75
2023-07-16T01:56:03.221Z,100919.56
2023-07-16T01:58:29.941Z,100909.41
2023-07-16T02:00:56.640Z,100916.53
2023-07-16T02:03:27.287Z,100906.41
2023-07-16T02:05:54.016Z,100913.09
2023-07-16T02:08:20.617Z,100916.19
2023-07-16T02:10:49.717Z,100913.91
2023-07-16T02:13:20.211Z,100914.38
2023-07-16T02:15:49.251Z,100921.47
2023-07-16T02:18:15.939Z,100913.09
2023-07-16T02:20:44.212Z,100909.22
2023-07-16T02:23:11.035Z,100907.69
2023-07-16T02:25:37.685Z,100916.31
2023-07-16T02:28:04.420Z,100911.91
2023-07-16T02:30:31.059Z,100908.38
2023-07-16T02:32:57.783Z,100916.31
2023-07-16T02:35:25.874Z,100911.63
2023-07-16T02:37:52.614Z,100915.97
2023-07-16T02:40:24.470Z,100918.78
2023-07-16T02:42:51.369Z,100911.63
2023-07-16T02:45:18.149Z,100913.19
2023-07-16T02:47:47.250Z,100914.75
2023-07-16T02:50:13.930Z,100918.72
2023-07-16T02:52:40.717Z,100921.00
2023-07-16T02:55:07.716Z,100922.66
2023-07-16T02:57:34.448Z,100915.19
2023-07-16T03:00:01.033Z,100924.63
2023-07-16T03:02:49.186Z,100923.88
2023-07-16T03:05:21.805Z,100922.06
2023-07-16T03:07:48.582Z,100937.44
2023-07-16T03:10:15.280Z,100931.84
2023-07-16T03:12:42.106Z,100925.84
2023-07-16T03:15:09.438Z,100931.78
2023-07-16T03:17:36.209Z,100931.78
2023-07-16T03:20:05.473Z,100927.13
2023-07-16T03:22:32.524Z,100926.78
2023-07-16T03:24:59.217Z,100929.63
2023-07-16T03:27:25.847Z,100928.16
2023-07-16T03:29:52.620Z,100928.16
2023-07-16T03:32:19.442Z,100926.59
2023-07-16T03:34:46.095Z,100929.34
2023-07-16T03:37:12.713Z,100931.31
2023-07-16T03:39:39.558Z,100934.53
2023-07-16T03:42:09.262Z,100930.13
2023-07-16T03:44:35.909Z,100943.19
2023-07-16T03:47:02.570Z,100944.31
2023-07-16T03:49:32.317Z,100950.22
2023-07-16T03:51:58.885Z,100956.84
2023-07-16T03:54:25.528Z,100956.00
2023-07-16T03:56:52.317Z,100958.78
2023-07-16T03:59:18.955Z,100961.16
2023-07-16T04:01:46.758Z,100962.34
2023-07-16T04:04:13.442Z,100970.34
2023-07-16T04:06:40.077Z,100969.25
2023-07-16T04:09:11.027Z,100972.81
2023-07-16T04:11:37.651Z,100968.53
2023-07-16T04:14:04.306Z,100979.19
2023-07-16T04:16:31.042Z,100983.16
2023-07-16T04:19:00.272Z,100972.16
2023-07-16T04:21:26.885Z,100979.19
2023-07-16T04:23:53.471Z,100978.06
2023-07-16T04:26:20.023Z,100978.41
2023-07-16T04:28:46.676Z,100983.50
2023-07-16T04:31:13.407Z,100990.19
2023-07-16T04:33:40.505Z,100991.06
2023-07-16T04:36:08.610Z,100995.69
2023-07-16T04:38:35.323Z,101001.56
2023-07-16T04:41:02.017Z,100998.78
2023-07-16T04:43:28.681Z,100999.56
2023-07-16T04:46:02.052Z,100989.69
2023-07-16T04:48:28.734Z,101003.09
2023-07-16T04:50:58.010Z,101005.78
2023-07-16T04:53:25.234Z,101008.09
2023-07-16T04:55:51.962Z,101006.13
2023-07-16T04:58:18.559Z,101011.13
2023-07-16T05:00:45.315Z,101007.53
2023-07-16T05:03:12.011Z,101012.94
2023-07-16T05:05:38.651Z,101020.84
2023-07-16T05:08:06.854Z,101019.72
2023-07-16T05:10:34.711Z,101018.09
2023-07-16T05:13:01.307Z,101023.53
2023-07-16T05:15:27.977Z,101014.34
2023-07-16T05:17:55.759Z,101018.22
2023-07-16T05:20:22.504Z,101016.56
2023-07-16T05:22:49.140Z,101011.00
2023-07-16T05:25:18.339Z,101010.13
2023-07-16T05:27:44.980Z,101015.63
2023-07-16T05:30:13.673Z,101023.13
2023-07-16T05:32:41.548Z,101024.25
2023-07-16T05:35:08.626Z,101023.72
2023-07-16T05:37:35.369Z,101034.25
2023-07-16T05:40:02.087Z,101043.97
2023-07-16T05:42:28.892Z,101047.16
2023-07-16T05:44:55.725Z,101053.34
2023-07-16T05:47:22.677Z,101046.56
2023-07-16T05:49:51.664Z,101053.88
2023-07-16T05:52:18.719Z,101065.47
2023-07-16T05:54:46.219Z,101072.63
2023-07-16T05:57:13.164Z,101065.34
2023-07-16T05:59:40.142Z,101058.13
2023-07-16T06:02:18.450Z,101065.53
2023-07-16T06:04:45.681Z,101060.16
2023-07-16T06:07:13.986Z,101063.53
2023-07-16T06:09:40.660Z,101051.00
2023-07-16T06:12:07.336Z,101066.50
2023-07-16T06:14:33.927Z,101059.22
2023-07-16T06:17:00.667Z,101065.78
2023-07-16T06:19:27.362Z,101079.47
2023-07-16T06:21:53.950Z,101072.31
2023-07-16T06:24:24.215Z,101068.19
2023-07-16T06:26:50.805Z,101079.38
2023-07-16T06:29:17.410Z,101066.84
2023-07-16T06:31:45.784Z,101074.22
2023-07-16T06:34:12.419Z,101080.75
2023-07-16T06:36:39.372Z,101073.13
2023-07-16T06:39:30.992Z,101071.81
2023-07-16T06:41:57.608Z,101076.69
2023-07-16T06:44:24.871Z,101069.06
2023-07-16T06:46:52.204Z,101082.69
2023-07-16T06:49:24.432Z,101082.22
2023-07-16T06:51:51.111Z,101087.28
2023-07-16T06:54:18.840Z,101081.09
2023-07-16T06:56:46.837Z,101097.69
2023-07-16T06:59:17.085Z,101089.16
2023-07-16T07:01:44.039Z,101096.00
2023-07-16T07:04:18.349Z,101087.13
2023-07-16T07:06:47.018Z,101100.97
2023-07-16T07:09:13.781Z,101102.28
2023-07-16T07:11:42.820Z,101104.38
2023-07-16T07:14:12.117Z,101111.97
2023-07-16T07:16:44.835Z,101111.75
2023-07-16T07:19:11.621Z,101139.41
2023-07-16T07:21:38.397Z,101124.75
2023-07-16T07:24:11.361Z,101125.56
2023-07-16T07:26:43.472Z,101128.75
2023-07-16T07:29:11.825Z,101131.72
2023-07-16T07:31:39.356Z,101138.81
2023-07-16T07:34:07.919Z,101153.06
2023-07-16T07:36:36.985Z,101137.72
2023-07-16T07:42:02.758Z,101142.91
2023-07-16T07:44:29.445Z,101146.81
2023-07-16T07:46:57.006Z,101142.81
2023-07-16T07:49:23.992Z,101149.44
2023-07-16T07:51:50.642Z,101140.25
2023-07-16T07:54:17.555Z,101155.63
2023-07-16T07:56:46.914Z,101160.72
2023-07-16T07:59:13.606Z,101160.38
2023-07-16T08:01:40.226Z,101157.28
2023-07-16T08:04:06.980Z,101167.63
2023-07-16T08:06:33.841Z,101168.28
2023-07-16T08:09:00.550Z,101170.50
2023-07-16T08:11:27.138Z,101165.75
2023-07-16T08:13:54.790Z,101177.06
2023-07-16T08:16:21.430Z,101175.53
2023-07-16T08:18:48.102Z,101172.00
2023-07-16T08:21:20.836Z,101182.91
2023-07-16T08:23:50.381Z,101186.91
2023-07-16T08:26:18.247Z,101190.13
2023-07-16T08:28:45.541Z,101181.06
2023-07-16T08:31:13.900Z,101178.84
2023-07-16T08:33:41.096Z,101181.16
2023-07-16T08:36:07.713Z,101185.34
2023-07-16T08:38:34.479Z,101188.34
2023-07-16T08:41:03.105Z,101197.63
2023-07-16T08:43:30.514Z,101204.72
2023-07-16T08:45:57.510Z,101199.06
2023-07-16T08:48:24.501Z,101198.53
2023-07-16T08:50:51.284Z,101209.59
2023-07-16T08:53:18.521Z,101205.94
2023-07-16T08:55:45.877Z,101227.38
2023-07-16T08:58:16.357Z,101217.00
2023-07-16T09:00:45.105Z,101214.66
2023-07-16T09:03:14.848Z,101218.88
2023-07-16T09:05:41.813Z,101220.09
2023-07-16T09:08:09.862Z,101224.19
2023-07-16T09:10:36.896Z,101225.63
2023-07-16T09:13:03.724Z,101233.91
2023-07-16T09:15:31.157Z,101224.19
2023-07-16T09:17:58.050Z,101238.22
2023-07-16T09:20:26.136Z,101240.75
2023-07-16T09:22:56.555Z,101229.41
2023-07-16T09:25:27.946Z,101256.59
2023-07-16T09:27:54.816Z,101249.28
2023-07-16T09:30:21.611Z,101240.22
2023-07-16T09:32:48.311Z,101248.84
2023-07-16T09:35:17.062Z,101247.09
2023-07-16T09:37:44.580Z,101253.91
2023-07-16T09:40:12.779Z,101243.09
2023-07-16T09:42:41.338Z,101239.78
2023-07-16T09:45:09.429Z,101253.38
2023-07-16T09:47:36.382Z,101245.63
2023-07-16T09:50:05.847Z,101262.69
2023-07-16T09:52:34.268Z,101254.81
2023-07-16T09:55:03.754Z,101256.25
2023-07-16T09:57:36.334Z,101267.88
2023-07-16T10:00:07.050Z,101258.69
2023-07-16T10:02:36.568Z,101265.66
2023-07-16T10:05:14.085Z,101272.75
2023-07-16T10:07:41.228Z,101270.41
2023-07-16T10:10:10.399Z,101274.75
2023-07-16T10:12:38.581Z,101280.16
2023-07-16T10:15:06.929Z,101275.41
2023-07-16T10:17:34.656Z,101282.81
2023-07-16T10:20:09.047Z,101290.44
2023-07-16T10:22:44.347Z,101283.28
2023-07-16T10:25:27.959Z,101284.03
2023-07-16T10:27:55.231Z,101294.72
2023-07-16T10:30:22.354Z,101299.97
2023-07-16T10:32:51.655Z,101292.97
2023-07-16T10:35:18.345Z,101297.53
2023-07-16T10:37:44.989Z,101327.72
2023-07-16T10:40:15.499Z,101311.44
2023-07-16T10:42:44.925Z,101309.25
2023-07-16T10:45:11.669Z,101311.56
2023-07-16T10:47:40.890Z,101312.63
2023-07-16T10:50:11.014Z,101312.34
2023-07-16T10:52:39.623Z,101317.94
2023-07-16T10:55:06.619Z,101307.19
2023-07-16T10:57:33.343Z,101317.13
2023-07-16T11:00:01.373Z,101328.72
2023-07-16T11:02:29.537Z,101317.25
2023-07-16T11:04:59.485Z,101336.25
2023-07-16T11:07:27.575Z,101338.78
2023-07-16T11:09:55.787Z,101334.22
2023-07-16T11:12:24.115Z,101337.06
2023-07-16T11:14:56.465Z,101325.31
2023-07-16T11:17:25.776Z,101332.22
2023-07-16T11:19:53.856Z,101337.06
2023-07-16T11:22:20.670Z,101342.03
2023-07-16T11:24:49.142Z,101347.19
2023-07-16T11:27:17.763Z,101341.91
2023-07-16T11:29:50.462Z,101357.50
2023-07-16T11:32:36.559Z,101355.44
2023-07-16T11:35:05.330Z,101349.50
2023-07-16T11:37:33.569Z,101360.03
2023-07-16T11:40:04.609Z,101362.34
2023-07-16T11:42:35.138Z,101348.50
2023-07-16T11:45:03.530Z,101365.81
2023-07-16T11:47:30.768Z,101385.34
2023-07-16T11:49:58.547Z,101363.16
2023-07-16T11:52:28.235Z,101371.91
2023-07-16T11:54:57.785Z,101364.69
2023-07-16T11:57:24.546Z,101374.56
2023-07-16T11:59:51.156Z,101371.47
2023-07-16T12:02:17.951Z,101379.59
2023-07-16T12:04:44.645Z,101393.84
2023-07-16T12:07:11.427Z,101391.13
2023-07-16T12:09:38.061Z,101381.63
2023-07-16T12:12:05.503Z,101369.66
2023-07-16T12:14:32.728Z,101377.91
2023-07-16T12:16:59.585Z,101371.06
2023-07-16T12:19:26.386Z,101384.34
2023-07-16T12:21:54.447Z,101396.22
2023-07-16T12:24:21.342Z,101378.22
2023-07-16T12:26:47.900Z,101382.84
2023-07-16T12:29:14.582Z,101375.50
2023-07-16T12:31:41.185Z,101380.50
2023-07-16T12:34:07.866Z,101377.78
2023-07-16T12:36:34.500Z,101376.81
2023-07-16T12:39:01.514Z,101383.19
2023-07-16T12:49:47.543Z,101404.75
2023-07-16T12:52:14.235Z,101389.16
2023-07-16T13:04:23.139Z,101395.44
2023-07-16T13:13:04.434Z,101395.84
2023-07-16T13:18:49.045Z,101405.88
2023-07-16T13:21:15.674Z,101408.97
2023-07-16T13:27:15.177Z,101419.38
2023-07-16T13:32:31.226Z,101414.88
2023-07-16T13:35:11.432Z,101425.34
2023-07-16T13:38:11.028Z,101434.19
2023-07-16T13:40:48.127Z,101421.47
2023-07-16T13:43:20.788Z,101427.59
2023-07-16T13:45:50.541Z,101413.53
2023-07-16T13:51:07.582Z,101417.94
2023-07-16T13:59:51.816Z,101398.56
2023-07-16T14:02:48.905Z,101405.59
2023-07-16T14:05:24.477Z,101408.50
2023-07-16T14:13:54.327Z,101413.97
2023-07-16T14:21:54.391Z,101426.84
2023-07-16T14:24:27.052Z,101436.22
2023-07-16T14:36:21.244Z,101432.94
2023-07-16T14:38:50.417Z,101437.72
2023-07-16T14:41:20.178Z,101439.16
2023-07-16T14:50:11.153Z,101434.81
2023-07-16T14:53:04.986Z,101425.09
2023-07-16T14:56:03.396Z,101441.03
2023-07-16T14:58:39.581Z,101427.44
2023-07-16T15:01:09.567Z,101443.66
2023-07-16T15:12:02.301Z,101430.50
2023-07-16T15:14:30.585Z,101432.75
2023-07-16T15:19:48.236Z,101442.81
2023-07-16T15:25:37.171Z,101437.69
2023-07-16T15:35:32.471Z,101440.69
2023-07-16T15:53:02.317Z,101425.94
2023-07-16T15:55:33.903Z,101427.19
2023-07-16T16:07:20.004Z,101429.25
2023-07-16T16:19:30.453Z,101437.09
2023-07-16T16:26:19.613Z,101435.91
2023-07-16T16:28:50.996Z,101437.28
2023-07-16T16:31:45.958Z,101424.63
2023-07-16T16:47:19.097Z,101429.69
2023-07-16T16:55:19.279Z,101445.31
2023-07-16T17:12:50.943Z,101458.75
2023-07-16T17:15:41.391Z,101458.53
2023-07-16T17:18:10.001Z,101455.09
2023-07-16T17:20:36.989Z,101459.88
2023-07-16T17:23:42.558Z,101461.19
2023-07-16T17:26:09.311Z,101461.75
2023-07-16T17:28:39.005Z,101461.75
2023-07-16T17:33:50.368Z,101471.16
2023-07-16T17:36:17.010Z,101466.22
2023-07-16T17:38:43.808Z,101478.72
2023-07-16T17:41:10.486Z,101470.41
2023-07-16T17:43:37.113Z,101463.00
2023-07-16T17:46:03.861Z,101468.97
2023-07-16T17:48:33.466Z,101464.22
2023-07-16T17:51:00.760Z,101463.75
2023-07-16T17:53:27.474Z,101470.22
2023-07-16T17:55:57.209Z,101467.56
2023-07-16T17:58:23.775Z,101469.59
2023-07-16T18:00:56.921Z,101469.09
2023-07-16T18:03:23.888Z,101477.75
2023-07-16T18:05:51.297Z,101475.34
2023-07-16T18:08:19.622Z,101485.75
2023-07-16T18:10:48.285Z,101483.13
2023-07-16T18:13:15.410Z,101484.31
2023-07-16T18:15:42.070Z,101485.22
2023-07-16T18:18:09.170Z,101491.53
2023-07-16T18:20:36.141Z,101488.00
2023-07-16T18:23:03.962Z,101495.22
2023-07-16T18:25:30.657Z,101491.09
2023-07-16T18:27:59.450Z,101489.66
2023-07-16T18:30:26.228Z,101491.75
2023-07-16T18:32:52.895Z,101495.84
2023-07-16T18:35:25.320Z,101495.19
2023-07-16T18:37:51.939Z,101483.19
2023-07-16T18:40:18.482Z,101491.50
2023-07-16T18:42:46.992Z,101489.31
2023-07-16T18:45:13.697Z,101489.75
2023-07-16T18:47:40.319Z,101489.44
2023-07-16T18:50:10.379Z,101485.53
2023-07-16T18:52:37.162Z,101491.06
2023-07-16T18:55:04.773Z,101493.19
2023-07-16T18:57:31.611Z,101496.06
2023-07-16T18:59:59.206Z,101487.41
2023-07-16T19:02:26.303Z,101490.28
2023-07-16T19:04:53.111Z,101491.28
2023-07-16T19:07:19.874Z,101500.47
2023-07-16T19:09:46.503Z,101499.03
2023-07-16T19:12:13.332Z,101496.91
2023-07-16T19:14:39.945Z,101501.75
2023-07-16T19:17:14.111Z,101500.66
2023-07-16T19:19:40.799Z,101486.47
2023-07-16T19:22:08.118Z,101496.44
2023-07-16T19:24:34.926Z,101485.81
2023-07-16T19:27:03.126Z,101492.22
2023-07-16T19:29:29.895Z,101493.75
2023-07-16T19:31:56.575Z,101503.81
2023-07-16T19:34:23.381Z,101504.31
2023-07-16T19:36:50.111Z,101520.94
2023-07-16T19:39:16.723Z,101523.34
2023-07-16T19:41:43.407Z,101533.31
2023-07-16T19:44:10.615Z,101531.00
2023-07-16T19:46:37.281Z,101531.44
2023-07-16T19:49:05.168Z,101534.63
2023-07-16T19:51:31.988Z,101538.69
2023-07-16T19:53:59.909Z,101542.22
2023-07-16T19:56:26.584Z,101540.34
2023-07-16T19:58:54.253Z,101542.19
2023-07-16T20:01:21.134Z,101541.06
2023-07-16T20:03:47.867Z,101547.91
2023-07-16T20:06:14.637Z,101539.44
2023-07-16T20:08:42.160Z,101546.72
2023-07-16T20:11:08.772Z,101536.34
2023-07-16T20:13:35.456Z,101530.81
2023-07-16T20:16:02.160Z,101537.56
2023-07-16T20:18:28.789Z,101538.00
2023-07-16T20:20:57.259Z,101539.22
2023-07-16T20:23:26.432Z,101538.53
2023-07-16T20:25:53.441Z,101546.13
2023-07-16T20:28:20.633Z,101533.13
2023-07-16T20:30:47.796Z,101531.66
2023-07-16T20:33:14.611Z,101533.75
2023-07-16T20:35:41.228Z,101540.13
2023-07-16T20:38:08.406Z,101534.34
2023-07-16T20:40:35.669Z,101536.75
2023-07-16T20:43:02.758Z,101548.22
2023-07-16T20:45:31.241Z,101540.81
2023-07-16T20:48:00.717Z,101545.63
2023-07-16T20:50:28.849Z,101542.16
2023-07-16T20:52:58.143Z,101535.53
2023-07-16T20:55:25.981Z,101533.19
2023-07-16T20:57:54.504Z,101526.97
2023-07-16T21:00:25.477Z,101523.84
2023-07-16T21:02:54.758Z,101524.38
2023-07-16T21:05:23.901Z,101526.44
2023-07-16T21:07:50.637Z,101526.94
2023-07-16T21:10:19.496Z,101527.81
2023-07-16T21:12:46.185Z,101525.09
2023-07-16T21:15:14.074Z,101523.63
2023-07-16T21:17:40.843Z,101517.75
2023-07-16T21:20:10.532Z,101520.94
2023-07-16T21:22:39.087Z,101522.56
2023-07-16T21:25:06.904Z,101523.78
2023-07-16T21:27:41.307Z,101525.44
2023-07-16T21:30:08.416Z,101527.38
2023-07-16T21:32:35.079Z,101528.66
2023-07-16T21:35:01.695Z,101520.03
2023-07-16T21:37:29.391Z,101522.44
2023-07-16T21:39:56.989Z,101524.41
2023-07-16T21:42:25.164Z,101521.59
2023-07-16T21:44:51.793Z,101531.06
2023-07-16T21:47:18.389Z,101544.09
2023-07-16T21:49:46.251Z,101538.19
2023-07-16T21:52:12.785Z,101537.06
2023-07-16T21:54:39.643Z,101544.50
2023-07-16T21:57:06.733Z,101544.88
2023-07-16T21:59:33.446Z,101531.00
2023-07-16T22:02:00.092Z,101536.88
2023-07-16T22:04:27.175Z,101548.78
2023-07-16T22:06:53.869Z,101545.66
2023-07-16T22:09:20.819Z,101549.19
2023-07-16T22:11:47.409Z,101551.97
2023-07-16T22:14:13.999Z,101548.44
2023-07-16T22:16:40.934Z,101545.69
2023-07-16T22:19:21.193Z,101550.88
2023-07-16T22:21:55.229Z,101550.88
2023-07-16T22:24:22.386Z,101569.75
2023-07-16T22:26:48.982Z,101568.19
2023-07-16T22:29:15.635Z,101568.69
2023-07-16T22:31:42.289Z,101557.72
2023-07-16T22:34:08.981Z,101566.00
2023-07-16T22:36:40.173Z,101565.63
2023-07-16T22:39:06.738Z,101567.63
2023-07-16T22:41:33.344Z,101565.63
2023-07-16T22:43:59.942Z,101570.75
2023-07-16T22:46:26.626Z,101566.78
2023-07-16T22:48:54.346Z,101564.81
2023-07-16T22:51:21.061Z,101562.88
2023-07-16T22:53:47.767Z,101574.00
2023-07-16T22:56:14.408Z,101567.78
2023-07-16T22:58:41.014Z,101566.22
2023-07-16T23:01:09.554Z,101557.09
2023-07-16T23:03:37.070Z,101559.84
2023-07-16T23:06:04.467Z,101566.13
2023-07-16T23:08:31.062Z,101560.22
2023-07-16T23:10:57.758Z,101564.16
2023-07-16T23:13:24.348Z,101580.00
2023-07-16T23:15:51.001Z,101584.38
2023-07-16T23:18:17.669Z,101582.47
2023-07-16T23:20:44.560Z,101584.81
2023-07-16T23:23:11.229Z,101585.22
2023-07-16T23:25:38.360Z,101581.69
2023-07-16T23:28:07.628Z,101586.84
2023-07-16T23:30:35.218Z,101579.75
2023-07-16T23:33:04.489Z,101588.47
2023-07-16T23:35:31.871Z,101578.28
2023-07-16T23:37:58.619Z,101578.72
2023-07-16T23:40:25.345Z,101572.47
2023-07-16T23:42:51.958Z,101578.78
2023-07-16T23:45:19.681Z,101577.59
2023-07-16T23:47:46.452Z,101575.28
2023-07-16T23:50:13.095Z,101576.91
2023-07-16T23:52:39.710Z,101577.69
2023-07-16T23:55:07.423Z,101579.63
2023-07-16T23:57:37.487Z,101582.31
